sensor_id;sensor_type;location;lat;lon;timestamp;temperature;humidity
71942;DHT22;59997;53.300;-6.260;2022-10-16T00:01:45;7.67;87.01
71942;DHT22;59997;53.300;-6.260;2022-10-16T00:04:11;7.61;87.28
71942;DHT22;59997;53.300;-6.260;2022-10-16T00:06:37;7.48;87.52
71942;DHT22;59997;53.300;-6.260;2022-10-16T00:09:03;7.65;87.21
71942;DHT22;59997;53.300;-6.260;2022-10-16T00:11:33;7.68;87.08
71942;DHT22;59997;53.300;-6.260;2022-10-16T00:14:03;7.71;86.79
71942;DHT22;59997;53.300;-6.260;2022-10-16T00:16:30;7.83;86.32
71942;DHT22;59997;53.300;-6.260;2022-10-16T00:18:56;7.78;86.09
71942;DHT22;59997;53.300;-6.260;2022-10-16T00:21:25;7.76;86.10
71942;DHT22;59997;53.300;-6.260;2022-10-16T00:24:11;7.75;86.09
71942;DHT22;59997;53.300;-6.260;2022-10-16T00:26:38;7.81;85.50
71942;DHT22;59997;53.300;-6.260;2022-10-16T00:29:04;7.79;85.22
71942;DHT22;59997;53.300;-6.260;2022-10-16T00:31:30;7.83;85.08
71942;DHT22;59997;53.300;-6.260;2022-10-16T00:33:55;7.89;84.46
71942;DHT22;59997;53.300;-6.260;2022-10-16T00:36:22;7.92;84.57
71942;DHT22;59997;53.300;-6.260;2022-10-16T00:38:52;7.93;84.39
71942;DHT22;59997;53.300;-6.260;2022-10-16T00:41:20;7.89;84.45
71942;DHT22;59997;53.300;-6.260;2022-10-16T00:43:48;7.83;84.72
71942;DHT22;59997;53.300;-6.260;2022-10-16T00:46:53;7.90;84.40
71942;DHT22;59997;53.300;-6.260;2022-10-16T00:49:14;7.79;84.54
71942;DHT22;59997;53.300;-6.260;2022-10-16T00:51:46;7.76;84.69
71942;DHT22;59997;53.300;-6.260;2022-10-16T00:54:16;7.79;84.48
71942;DHT22;59997;53.300;-6.260;2022-10-16T00:56:43;7.76;84.49
71942;DHT22;59997;53.300;-6.260;2022-10-16T00:59:24;7.87;84.13
71942;DHT22;59997;53.300;-6.260;2022-10-16T01:01:51;7.87;84.08
71942;DHT22;59997;53.300;-6.260;2022-10-16T01:04:17;7.89;84.05
71942;DHT22;59997;53.300;-6.260;2022-10-16T01:09:52;7.78;84.60
71942;DHT22;59997;53.300;-6.260;2022-10-16T01:12:25;7.85;84.18
71942;DHT22;59997;53.300;-6.260;2022-10-16T01:15:03;7.82;84.20
71942;DHT22;59997;53.300;-6.260;2022-10-16T01:17:34;7.85;83.69
71942;DHT22;59997;53.300;-6.260;2022-10-16T01:20:09;7.94;83.10
71942;DHT22;59997;53.300;-6.260;2022-10-16T01:23:04;7.92;83.20
71942;DHT22;59997;53.300;-6.260;2022-10-16T01:28:21;7.79;83.45
71942;DHT22;59997;53.300;-6.260;2022-10-16T01:30:52;7.76;83.38
71942;DHT22;59997;53.300;-6.260;2022-10-16T01:33:24;7.76;83.53
71942;DHT22;59997;53.300;-6.260;2022-10-16T01:35:58;7.75;83.53
71942;DHT22;59997;53.300;-6.260;2022-10-16T01:38:29;7.72;83.41
71942;DHT22;59997;53.300;-6.260;2022-10-16T01:43:48;7.81;82.55
71942;DHT22;59997;53.300;-6.260;2022-10-16T01:46:17;7.92;82.00
71942;DHT22;59997;53.300;-6.260;2022-10-16T01:48:43;7.85;82.08
71942;DHT22;59997;53.300;-6.260;2022-10-16T01:51:12;7.68;83.04
71942;DHT22;59997;53.300;-6.260;2022-10-16T01:53:45;7.78;82.85
71942;DHT22;59997;53.300;-6.260;2022-10-16T01:56:13;7.83;82.73
71942;DHT22;59997;53.300;-6.260;2022-10-16T01:58:45;7.83;82.59
71942;DHT22;59997;53.300;-6.260;2022-10-16T02:01:14;7.81;82.79
71942;DHT22;59997;53.300;-6.260;2022-10-16T02:03:42;7.83;82.92
71942;DHT22;59997;53.300;-6.260;2022-10-16T02:06:09;7.75;83.33
71942;DHT22;59997;53.300;-6.260;2022-10-16T02:08:36;7.74;83.43
71942;DHT22;59997;53.300;-6.260;2022-10-16T02:11:04;7.64;84.05
71942;DHT22;59997;53.300;-6.260;2022-10-16T02:13:43;7.78;83.74
71942;DHT22;59997;53.300;-6.260;2022-10-16T02:16:11;7.72;83.74
71942;DHT22;59997;53.300;-6.260;2022-10-16T02:18:38;7.59;84.53
71942;DHT22;59997;53.300;-6.260;2022-10-16T02:21:23;7.57;84.81
71942;DHT22;59997;53.300;-6.260;2022-10-16T02:26:50;7.69;84.07
71942;DHT22;59997;53.300;-6.260;2022-10-16T02:29:20;7.81;83.25
71942;DHT22;59997;53.300;-6.260;2022-10-16T02:31:50;7.79;82.95
71942;DHT22;59997;53.300;-6.260;2022-10-16T02:34:18;7.74;83.40
71942;DHT22;59997;53.300;-6.260;2022-10-16T02:36:47;7.54;84.10
71942;DHT22;59997;53.300;-6.260;2022-10-16T02:39:14;7.50;83.85
71942;DHT22;59997;53.300;-6.260;2022-10-16T02:41:40;7.50;83.43
71942;DHT22;59997;53.300;-6.260;2022-10-16T02:44:05;7.62;82.72
71942;DHT22;59997;53.300;-6.260;2022-10-16T02:46:31;7.61;82.81
71942;DHT22;59997;53.300;-6.260;2022-10-16T02:48:56;7.57;83.04
71942;DHT22;59997;53.300;-6.260;2022-10-16T02:51:22;7.43;83.55
71942;DHT22;59997;53.300;-6.260;2022-10-16T02:53:47;7.44;82.87
71942;DHT22;59997;53.300;-6.260;2022-10-16T02:56:13;7.47;82.78
71942;DHT22;59997;53.300;-6.260;2022-10-16T02:58:38;7.46;82.80
71942;DHT22;59997;53.300;-6.260;2022-10-16T03:01:04;7.27;83.26
71942;DHT22;59997;53.300;-6.260;2022-10-16T03:03:29;7.33;82.96
71942;DHT22;59997;53.300;-6.260;2022-10-16T03:05:55;7.27;82.90
71942;DHT22;59997;53.300;-6.260;2022-10-16T03:08:20;7.26;82.87
71942;DHT22;59997;53.300;-6.260;2022-10-16T03:10:49;7.24;82.58
71942;DHT22;59997;53.300;-6.260;2022-10-16T03:13:15;7.31;82.03
71942;DHT22;59997;53.300;-6.260;2022-10-16T03:15:40;7.16;82.39
71942;DHT22;59997;53.300;-6.260;2022-10-16T03:18:06;7.17;82.35
71942;DHT22;59997;53.300;-6.260;2022-10-16T03:20:31;6.98;83.59
71942;DHT22;59997;53.300;-6.260;2022-10-16T03:22:57;6.85;83.85
71942;DHT22;59997;53.300;-6.260;2022-10-16T03:25:22;6.78;83.94
71942;DHT22;59997;53.300;-6.260;2022-10-16T03:27:48;6.78;84.11
71942;DHT22;59997;53.300;-6.260;2022-10-16T03:30:13;6.82;83.70
71942;DHT22;59997;53.300;-6.260;2022-10-16T03:32:38;6.82;83.44
71942;DHT22;59997;53.300;-6.260;2022-10-16T03:35:04;6.91;82.53
71942;DHT22;59997;53.300;-6.260;2022-10-16T03:37:30;7.09;81.61
71942;DHT22;59997;53.300;-6.260;2022-10-16T03:39:55;7.26;80.64
71942;DHT22;59997;53.300;-6.260;2022-10-16T03:42:21;7.40;80.17
71942;DHT22;59997;53.300;-6.260;2022-10-16T03:44:46;7.37;80.10
71942;DHT22;59997;53.300;-6.260;2022-10-16T03:47:12;7.28;80.52
71942;DHT22;59997;53.300;-6.260;2022-10-16T03:49:37;7.16;81.21
71942;DHT22;59997;53.300;-6.260;2022-10-16T03:52:02;7.20;81.27
71942;DHT22;59997;53.300;-6.260;2022-10-16T03:54:28;7.19;81.51
71942;DHT22;59997;53.300;-6.260;2022-10-16T03:56:53;7.26;81.42
71942;DHT22;59997;53.300;-6.260;2022-10-16T03:59:19;7.44;80.55
71942;DHT22;59997;53.300;-6.260;2022-10-16T04:01:44;7.55;79.97
71942;DHT22;59997;53.300;-6.260;2022-10-16T04:04:10;7.57;79.81
71942;DHT22;59997;53.300;-6.260;2022-10-16T04:06:35;7.61;79.69
71942;DHT22;59997;53.300;-6.260;2022-10-16T04:09:01;7.50;80.24
71942;DHT22;59997;53.300;-6.260;2022-10-16T04:11:26;7.41;80.50
71942;DHT22;59997;53.300;-6.260;2022-10-16T04:13:52;7.40;80.52
71942;DHT22;59997;53.300;-6.260;2022-10-16T04:16:18;7.44;80.33
71942;DHT22;59997;53.300;-6.260;2022-10-16T04:18:43;7.44;80.23
71942;DHT22;59997;53.300;-6.260;2022-10-16T04:21:08;7.37;80.69
71942;DHT22;59997;53.300;-6.260;2022-10-16T04:23:34;7.26;80.90
71942;DHT22;59997;53.300;-6.260;2022-10-16T04:26:00;7.24;80.96
71942;DHT22;59997;53.300;-6.260;2022-10-16T04:28:25;7.24;80.93
71942;DHT22;59997;53.300;-6.260;2022-10-16T04:30:51;7.23;81.02
71942;DHT22;59997;53.300;-6.260;2022-10-16T04:33:17;7.24;81.20
71942;DHT22;59997;53.300;-6.260;2022-10-16T04:35:42;7.31;80.78
71942;DHT22;59997;53.300;-6.260;2022-10-16T04:38:08;7.43;80.37
71942;DHT22;59997;53.300;-6.260;2022-10-16T04:40:33;7.37;80.43
71942;DHT22;59997;53.300;-6.260;2022-10-16T04:43:04;7.40;80.42
71942;DHT22;59997;53.300;-6.260;2022-10-16T04:45:30;7.44;80.35
71942;DHT22;59997;53.300;-6.260;2022-10-16T04:47:57;7.41;80.35
71942;DHT22;59997;53.300;-6.260;2022-10-16T04:50:23;7.41;80.38
71942;DHT22;59997;53.300;-6.260;2022-10-16T04:52:48;7.34;80.70
71942;DHT22;59997;53.300;-6.260;2022-10-16T04:55:14;7.38;80.36
71942;DHT22;59997;53.300;-6.260;2022-10-16T04:57:40;7.27;80.83
71942;DHT22;59997;53.300;-6.260;2022-10-16T05:00:06;7.22;81.07
71942;DHT22;59997;53.300;-6.260;2022-10-16T05:02:31;7.05;81.69
71942;DHT22;59997;53.300;-6.260;2022-10-16T05:04:57;7.09;81.39
71942;DHT22;59997;53.300;-6.260;2022-10-16T05:07:22;6.95;82.16
71942;DHT22;59997;53.300;-6.260;2022-10-16T05:09:48;7.07;81.55
71942;DHT22;59997;53.300;-6.260;2022-10-16T05:12:13;7.03;81.66
71942;DHT22;59997;53.300;-6.260;2022-10-16T05:14:38;6.91;82.17
71942;DHT22;59997;53.300;-6.260;2022-10-16T05:17:04;6.89;82.38
71942;DHT22;59997;53.300;-6.260;2022-10-16T05:19:29;6.81;82.61
71942;DHT22;59997;53.300;-6.260;2022-10-16T05:21:55;6.85;82.72
71942;DHT22;59997;53.300;-6.260;2022-10-16T05:24:20;6.80;82.69
71942;DHT22;59997;53.300;-6.260;2022-10-16T05:26:46;6.74;83.08
71942;DHT22;59997;53.300;-6.260;2022-10-16T05:29:11;6.65;83.31
71942;DHT22;59997;53.300;-6.260;2022-10-16T05:31:37;6.63;83.76
71942;DHT22;59997;53.300;-6.260;2022-10-16T05:34:02;6.72;83.28
71942;DHT22;59997;53.300;-6.260;2022-10-16T05:36:28;6.68;83.54
71942;DHT22;59997;53.300;-6.260;2022-10-16T05:38:53;6.84;83.05
71942;DHT22;59997;53.300;-6.260;2022-10-16T05:41:19;6.81;82.94
71942;DHT22;59997;53.300;-6.260;2022-10-16T05:43:47;6.81;83.07
71942;DHT22;59997;53.300;-6.260;2022-10-16T05:46:13;6.74;83.37
71942;DHT22;59997;53.300;-6.260;2022-10-16T05:48:38;6.63;83.68
71942;DHT22;59997;53.300;-6.260;2022-10-16T05:51:06;6.64;83.75
71942;DHT22;59997;53.300;-6.260;2022-10-16T05:53:34;6.81;83.28
71942;DHT22;59997;53.300;-6.260;2022-10-16T05:56:00;6.75;83.34
71942;DHT22;59997;53.300;-6.260;2022-10-16T05:58:29;6.72;83.38
71942;DHT22;59997;53.300;-6.260;2022-10-16T06:01:04;6.60;83.94
71942;DHT22;59997;53.300;-6.260;2022-10-16T06:03:29;6.63;83.99
71942;DHT22;59997;53.300;-6.260;2022-10-16T06:05:55;6.68;83.70
71942;DHT22;59997;53.300;-6.260;2022-10-16T06:08:22;6.58;83.86
71942;DHT22;59997;53.300;-6.260;2022-10-16T06:10:48;6.63;83.77
71942;DHT22;59997;53.300;-6.260;2022-10-16T06:13:14;6.63;83.85
71942;DHT22;59997;53.300;-6.260;2022-10-16T06:15:41;6.46;84.32
71942;DHT22;59997;53.300;-6.260;2022-10-16T06:18:08;6.40;84.68
71942;DHT22;59997;53.300;-6.260;2022-10-16T06:20:34;6.54;84.39
71942;DHT22;59997;53.300;-6.260;2022-10-16T06:23:00;6.51;84.53
71942;DHT22;59997;53.300;-6.260;2022-10-16T06:25:25;6.46;84.78
71942;DHT22;59997;53.300;-6.260;2022-10-16T06:27:51;6.25;85.39
71942;DHT22;59997;53.300;-6.260;2022-10-16T06:30:16;6.05;86.06
71942;DHT22;59997;53.300;-6.260;2022-10-16T06:32:42;6.15;86.35
71942;DHT22;59997;53.300;-6.260;2022-10-16T06:35:07;6.13;86.08
71942;DHT22;59997;53.300;-6.260;2022-10-16T06:37:33;6.06;86.41
71942;DHT22;59997;53.300;-6.260;2022-10-16T06:39:58;6.15;86.30
71942;DHT22;59997;53.300;-6.260;2022-10-16T06:42:25;6.11;86.26
71942;DHT22;59997;53.300;-6.260;2022-10-16T06:44:51;6.05;86.63
71942;DHT22;59997;53.300;-6.260;2022-10-16T06:47:16;5.99;86.60
71942;DHT22;59997;53.300;-6.260;2022-10-16T06:49:42;5.90;87.13
71942;DHT22;59997;53.300;-6.260;2022-10-16T06:52:07;5.87;87.38
71942;DHT22;59997;53.300;-6.260;2022-10-16T06:54:32;5.84;87.48
71942;DHT22;59997;53.300;-6.260;2022-10-16T06:56:58;5.88;87.78
71942;DHT22;59997;53.300;-6.260;2022-10-16T06:59:25;5.84;87.95
71942;DHT22;59997;53.300;-6.260;2022-10-16T07:01:50;5.87;87.83
71942;DHT22;59997;53.300;-6.260;2022-10-16T07:04:16;5.75;88.10
71942;DHT22;59997;53.300;-6.260;2022-10-16T07:06:41;5.84;88.20
71942;DHT22;59997;53.300;-6.260;2022-10-16T07:09:09;5.71;88.31
71942;DHT22;59997;53.300;-6.260;2022-10-16T07:11:37;5.78;88.68
71942;DHT22;59997;53.300;-6.260;2022-10-16T07:14:03;5.94;88.63
71942;DHT22;59997;53.300;-6.260;2022-10-16T07:16:31;6.06;88.31
71942;DHT22;59997;53.300;-6.260;2022-10-16T07:18:58;6.23;87.95
71942;DHT22;59997;53.300;-6.260;2022-10-16T07:21:26;6.47;87.32
71942;DHT22;59997;53.300;-6.260;2022-10-16T07:23:58;6.50;87.08
71942;DHT22;59997;53.300;-6.260;2022-10-16T07:26:25;6.82;86.47
71942;DHT22;59997;53.300;-6.260;2022-10-16T07:28:50;7.09;85.43
71942;DHT22;59997;53.300;-6.260;2022-10-16T07:31:18;7.22;84.76
71942;DHT22;59997;53.300;-6.260;2022-10-16T07:33:45;7.26;84.60
71942;DHT22;59997;53.300;-6.260;2022-10-16T07:36:12;7.27;84.44
71942;DHT22;59997;53.300;-6.260;2022-10-16T07:38:37;7.30;84.32
71942;DHT22;59997;53.300;-6.260;2022-10-16T07:41:09;7.38;84.26
71942;DHT22;59997;53.300;-6.260;2022-10-16T07:43:35;7.57;83.47
71942;DHT22;59997;53.300;-6.260;2022-10-16T07:46:01;7.68;83.40
71942;DHT22;59997;53.300;-6.260;2022-10-16T07:48:29;7.75;83.10
71942;DHT22;59997;53.300;-6.260;2022-10-16T07:50:59;7.94;82.75
71942;DHT22;59997;53.300;-6.260;2022-10-16T07:53:25;7.93;83.00
71942;DHT22;59997;53.300;-6.260;2022-10-16T07:55:50;7.97;83.70
71942;DHT22;59997;53.300;-6.260;2022-10-16T07:58:16;7.97;83.58
71942;DHT22;59997;53.300;-6.260;2022-10-16T08:00:41;8.00;83.49
71942;DHT22;59997;53.300;-6.260;2022-10-16T08:03:08;8.06;83.29
71942;DHT22;59997;53.300;-6.260;2022-10-16T08:05:33;8.20;82.54
71942;DHT22;59997;53.300;-6.260;2022-10-16T08:08:00;8.46;80.84
71942;DHT22;59997;53.300;-6.260;2022-10-16T08:10:27;8.66;80.56
71942;DHT22;59997;53.300;-6.260;2022-10-16T08:12:53;8.80;79.72
71942;DHT22;59997;53.300;-6.260;2022-10-16T08:15:19;9.11;78.93
71942;DHT22;59997;53.300;-6.260;2022-10-16T08:17:54;9.21;78.69
71942;DHT22;59997;53.300;-6.260;2022-10-16T08:20:19;9.31;78.10
71942;DHT22;59997;53.300;-6.260;2022-10-16T08:22:45;9.42;77.91
71942;DHT22;59997;53.300;-6.260;2022-10-16T08:25:10;9.52;77.49
71942;DHT22;59997;53.300;-6.260;2022-10-16T08:27:36;9.59;77.20
71942;DHT22;59997;53.300;-6.260;2022-10-16T08:30:01;9.56;77.98
71942;DHT22;59997;53.300;-6.260;2022-10-16T08:32:27;9.66;79.33
71942;DHT22;59997;53.300;-6.260;2022-10-16T08:34:52;9.77;79.55
71942;DHT22;59997;53.300;-6.260;2022-10-16T08:37:17;9.95;78.35
71942;DHT22;59997;53.300;-6.260;2022-10-16T08:39:43;10.17;79.12
71942;DHT22;59997;53.300;-6.260;2022-10-16T08:42:37;10.36;79.19
71942;DHT22;59997;53.300;-6.260;2022-10-16T08:48:43;10.66;76.26
71942;DHT22;59997;53.300;-6.260;2022-10-16T08:50:51;10.80;75.07
71942;DHT22;59997;53.300;-6.260;2022-10-16T08:53:30;11.01;75.07
71942;DHT22;59997;53.300;-6.260;2022-10-16T08:55:56;11.05;74.13
71942;DHT22;59997;53.300;-6.260;2022-10-16T08:58:28;11.10;74.09
71942;DHT22;59997;53.300;-6.260;2022-10-16T09:00:56;11.14;74.45
71942;DHT22;59997;53.300;-6.260;2022-10-16T09:06:21;11.42;75.25
71942;DHT22;59997;53.300;-6.260;2022-10-16T09:09:19;11.59;74.42
71942;DHT22;59997;53.300;-6.260;2022-10-16T09:14:49;11.89;72.00
71942;DHT22;59997;53.300;-6.260;2022-10-16T09:17:28;12.08;72.43
71942;DHT22;59997;53.300;-6.260;2022-10-16T09:22:33;12.09;71.08
71942;DHT22;59997;53.300;-6.260;2022-10-16T09:25:11;12.19;71.47
71942;DHT22;59997;53.300;-6.260;2022-10-16T09:27:38;12.23;71.39
71942;DHT22;59997;53.300;-6.260;2022-10-16T09:30:18;12.37;71.10
71942;DHT22;59997;53.300;-6.260;2022-10-16T09:32:46;12.58;71.84
71942;DHT22;59997;53.300;-6.260;2022-10-16T09:35:18;12.71;71.05
71942;DHT22;59997;53.300;-6.260;2022-10-16T09:37:46;12.67;68.42
71942;DHT22;59997;53.300;-6.260;2022-10-16T09:40:44;12.71;68.43
71942;DHT22;59997;53.300;-6.260;2022-10-16T09:45:59;12.85;69.02
71942;DHT22;59997;53.300;-6.260;2022-10-16T09:48:28;12.98;69.62
71942;DHT22;59997;53.300;-6.260;2022-10-16T09:51:01;13.06;70.26
71942;DHT22;59997;53.300;-6.260;2022-10-16T09:53:39;13.20;68.70
71942;DHT22;59997;53.300;-6.260;2022-10-16T09:56:05;13.28;68.53
71942;DHT22;59997;53.300;-6.260;2022-10-16T09:58:31;13.34;69.24
71942;DHT22;59997;53.300;-6.260;2022-10-16T10:00:58;13.51;66.66
71942;DHT22;59997;53.300;-6.260;2022-10-16T10:06:24;13.53;67.49
71942;DHT22;59997;53.300;-6.260;2022-10-16T10:11:46;13.27;68.68
71942;DHT22;59997;53.300;-6.260;2022-10-16T10:14:22;13.15;68.14
71942;DHT22;59997;53.300;-6.260;2022-10-16T10:16:49;13.33;66.80
71942;DHT22;59997;53.300;-6.260;2022-10-16T10:19:19;13.28;66.88
71942;DHT22;59997;53.300;-6.260;2022-10-16T10:21:46;13.16;68.31
71942;DHT22;59997;53.300;-6.260;2022-10-16T10:24:14;13.00;70.03
71942;DHT22;59997;53.300;-6.260;2022-10-16T10:27:30;12.95;70.72
71942;DHT22;59997;53.300;-6.260;2022-10-16T10:35:03;12.71;70.96
71942;DHT22;59997;53.300;-6.260;2022-10-16T10:40:40;12.60;71.54
71942;DHT22;59997;53.300;-6.260;2022-10-16T10:46:10;12.37;72.66
71942;DHT22;59997;53.300;-6.260;2022-10-16T10:50:05;12.40;71.72
71942;DHT22;59997;53.300;-6.260;2022-10-16T10:57:29;12.34;71.96
71942;DHT22;59997;53.300;-6.260;2022-10-16T11:00:12;12.29;69.11
71942;DHT22;59997;53.300;-6.260;2022-10-16T11:05:40;12.09;70.93
71942;DHT22;59997;53.300;-6.260;2022-10-16T11:08:29;12.05;70.77
71942;DHT22;59997;53.300;-6.260;2022-10-16T11:11:00;11.94;70.33
71942;DHT22;59997;53.300;-6.260;2022-10-16T11:16:27;11.85;71.12
71942;DHT22;59997;53.300;-6.260;2022-10-16T11:19:08;11.82;70.59
71942;DHT22;59997;53.300;-6.260;2022-10-16T11:21:44;11.87;72.82
71942;DHT22;59997;53.300;-6.260;2022-10-16T11:24:20;11.94;70.95
71942;DHT22;59997;53.300;-6.260;2022-10-16T11:26:48;11.95;71.53
71942;DHT22;59997;53.300;-6.260;2022-10-16T11:29:25;11.92;70.20
71942;DHT22;59997;53.300;-6.260;2022-10-16T11:32:00;11.94;70.59
71942;DHT22;59997;53.300;-6.260;2022-10-16T11:34:38;11.95;71.89
71942;DHT22;59997;53.300;-6.260;2022-10-16T11:37:14;11.88;71.72
71942;DHT22;59997;53.300;-6.260;2022-10-16T11:39:43;11.85;70.66
71942;DHT22;59997;53.300;-6.260;2022-10-16T11:42:19;11.87;71.63
71942;DHT22;59997;53.300;-6.260;2022-10-16T11:50:43;11.92;72.98
71942;DHT22;59997;53.300;-6.260;2022-10-16T11:55:57;11.99;69.47
71942;DHT22;59997;53.300;-6.260;2022-10-16T12:03:42;11.95;69.92
71942;DHT22;59997;53.300;-6.260;2022-10-16T12:08:50;11.94;72.28
71942;DHT22;59997;53.300;-6.260;2022-10-16T12:11:34;11.85;69.57
71942;DHT22;59997;53.300;-6.260;2022-10-16T12:16:39;11.87;68.51
71942;DHT22;59997;53.300;-6.260;2022-10-16T12:19:16;11.81;69.40
71942;DHT22;59997;53.300;-6.260;2022-10-16T12:21:43;11.78;69.76
71942;DHT22;59997;53.300;-6.260;2022-10-16T12:24:33;11.80;71.67
71942;DHT22;59997;53.300;-6.260;2022-10-16T12:26:59;11.67;72.90
71942;DHT22;59997;53.300;-6.260;2022-10-16T12:29:39;11.66;72.43
71942;DHT22;59997;53.300;-6.260;2022-10-16T12:32:31;11.60;69.57
71942;DHT22;59997;53.300;-6.260;2022-10-16T12:34:58;11.53;71.82
71942;DHT22;59997;53.300;-6.260;2022-10-16T12:37:35;11.50;70.97
71942;DHT22;59997;53.300;-6.260;2022-10-16T12:42:48;11.36;71.40
71942;DHT22;59997;53.300;-6.260;2022-10-16T12:45:33;11.28;72.28
71942;DHT22;59997;53.300;-6.260;2022-10-16T12:48:02;11.25;71.33
71942;DHT22;59997;53.300;-6.260;2022-10-16T12:50:36;11.21;69.71
71942;DHT22;59997;53.300;-6.260;2022-10-16T12:53:16;11.18;70.68
71942;DHT22;59997;53.300;-6.260;2022-10-16T12:55:51;11.12;71.05
71942;DHT22;59997;53.300;-6.260;2022-10-16T13:06:33;11.21;68.39
71942;DHT22;59997;53.300;-6.260;2022-10-16T13:09:19;11.30;69.46
71942;DHT22;59997;53.300;-6.260;2022-10-16T13:19:50;10.93;73.38
71942;DHT22;59997;53.300;-6.260;2022-10-16T13:28:05;10.91;73.38
71942;DHT22;59997;53.300;-6.260;2022-10-16T13:30:38;10.85;75.57
71942;DHT22;59997;53.300;-6.260;2022-10-16T13:33:36;10.73;76.28
71942;DHT22;59997;53.300;-6.260;2022-10-16T13:36:04;10.70;76.29
71942;DHT22;59997;53.300;-6.260;2022-10-16T13:38:31;10.71;75.11
71942;DHT22;59997;53.300;-6.260;2022-10-16T13:41:14;10.66;74.79
71942;DHT22;59997;53.300;-6.260;2022-10-16T13:43:47;10.63;75.52
71942;DHT22;59997;53.300;-6.260;2022-10-16T13:46:14;10.64;76.46
71942;DHT22;59997;53.300;-6.260;2022-10-16T13:48:40;10.64;76.89
71942;DHT22;59997;53.300;-6.260;2022-10-16T13:51:13;10.61;77.29
71942;DHT22;59997;53.300;-6.260;2022-10-16T13:53:39;10.50;77.85
71942;DHT22;59997;53.300;-6.260;2022-10-16T13:56:10;10.41;78.98
71942;DHT22;59997;53.300;-6.260;2022-10-16T13:58:36;10.38;78.77
71942;DHT22;59997;53.300;-6.260;2022-10-16T14:01:04;10.46;78.56
71942;DHT22;59997;53.300;-6.260;2022-10-16T14:03:31;10.39;79.55
71942;DHT22;59997;53.300;-6.260;2022-10-16T14:06:00;10.34;79.76
71942;DHT22;59997;53.300;-6.260;2022-10-16T14:08:27;10.39;79.78
71942;DHT22;59997;53.300;-6.260;2022-10-16T14:10:56;10.36;80.14
71942;DHT22;59997;53.300;-6.260;2022-10-16T14:13:45;10.29;80.74
71942;DHT22;59997;53.300;-6.260;2022-10-16T14:16:17;10.32;80.54
71942;DHT22;59997;53.300;-6.260;2022-10-16T14:18:46;10.29;81.13
71942;DHT22;59997;53.300;-6.260;2022-10-16T14:21:15;10.29;81.71
71942;DHT22;59997;53.300;-6.260;2022-10-16T14:23:42;10.28;81.81
71942;DHT22;59997;53.300;-6.260;2022-10-16T14:28:33;10.31;82.92
71942;DHT22;59997;53.300;-6.260;2022-10-16T14:31:00;10.29;82.76
71942;DHT22;59997;53.300;-6.260;2022-10-16T14:38:26;10.42;82.07
71942;DHT22;59997;53.300;-6.260;2022-10-16T14:40:52;10.48;82.02
71942;DHT22;59997;53.300;-6.260;2022-10-16T14:43:22;10.52;81.57
71942;DHT22;59997;53.300;-6.260;2022-10-16T14:45:55;10.53;82.27
71942;DHT22;59997;53.300;-6.260;2022-10-16T14:48:21;10.55;82.38
71942;DHT22;59997;53.300;-6.260;2022-10-16T14:50:46;10.60;82.36
71942;DHT22;59997;53.300;-6.260;2022-10-16T14:53:12;10.63;82.30
71942;DHT22;59997;53.300;-6.260;2022-10-16T14:55:39;10.71;81.97
71942;DHT22;59997;53.300;-6.260;2022-10-16T14:58:07;10.84;81.15
71942;DHT22;59997;53.300;-6.260;2022-10-16T15:00:35;11.07;80.11
71942;DHT22;59997;53.300;-6.260;2022-10-16T15:03:00;11.16;80.79
71942;DHT22;59997;53.300;-6.260;2022-10-16T15:05:27;11.26;80.34
71942;DHT22;59997;53.300;-6.260;2022-10-16T15:07:54;11.36;80.76
71942;DHT22;59997;53.300;-6.260;2022-10-16T15:10:22;11.47;80.03
71942;DHT22;59997;53.300;-6.260;2022-10-16T15:12:48;11.53;79.99
71942;DHT22;59997;53.300;-6.260;2022-10-16T15:17:59;11.63;79.60
71942;DHT22;59997;53.300;-6.260;2022-10-16T15:20:31;11.69;77.88
71942;DHT22;59997;53.300;-6.260;2022-10-16T15:23:03;11.82;76.54
71942;DHT22;59997;53.300;-6.260;2022-10-16T15:25:42;11.88;76.95
71942;DHT22;59997;53.300;-6.260;2022-10-16T15:28:09;11.81;78.07
71942;DHT22;59997;53.300;-6.260;2022-10-16T15:30:36;11.77;78.70
71942;DHT22;59997;53.300;-6.260;2022-10-16T15:33:02;11.71;78.38
71942;DHT22;59997;53.300;-6.260;2022-10-16T15:35:27;11.74;78.26
71942;DHT22;59997;53.300;-6.260;2022-10-16T15:37:53;11.73;78.90
71942;DHT22;59997;53.300;-6.260;2022-10-16T15:40:19;11.59;79.02
71942;DHT22;59997;53.300;-6.260;2022-10-16T15:42:45;11.50;79.36
71942;DHT22;59997;53.300;-6.260;2022-10-16T15:45:12;11.42;79.18
71942;DHT22;59997;53.300;-6.260;2022-10-16T15:47:37;11.29;80.47
71942;DHT22;59997;53.300;-6.260;2022-10-16T15:50:04;11.19;81.21
71942;DHT22;59997;53.300;-6.260;2022-10-16T15:52:30;10.94;82.80
71942;DHT22;59997;53.300;-6.260;2022-10-16T15:54:57;10.77;84.27
71942;DHT22;59997;53.300;-6.260;2022-10-16T15:57:23;10.66;85.46
71942;DHT22;59997;53.300;-6.260;2022-10-16T15:59:49;10.60;85.68
71942;DHT22;59997;53.300;-6.260;2022-10-16T16:02:14;10.57;86.72
71942;DHT22;59997;53.300;-6.260;2022-10-16T16:04:40;10.49;87.68
71942;DHT22;59997;53.300;-6.260;2022-10-16T16:07:05;10.43;88.38
71942;DHT22;59997;53.300;-6.260;2022-10-16T16:09:33;10.36;89.13
71942;DHT22;59997;53.300;-6.260;2022-10-16T16:11:58;10.39;89.35
71942;DHT22;59997;53.300;-6.260;2022-10-16T16:14:26;10.35;89.85
71942;DHT22;59997;53.300;-6.260;2022-10-16T16:16:54;10.32;90.22
71942;DHT22;59997;53.300;-6.260;2022-10-16T16:19:20;10.35;90.30
71942;DHT22;59997;53.300;-6.260;2022-10-16T16:21:46;10.31;90.57
71942;DHT22;59997;53.300;-6.260;2022-10-16T16:24:12;10.34;90.53
71942;DHT22;59997;53.300;-6.260;2022-10-16T16:26:38;10.32;90.69
71942;DHT22;59997;53.300;-6.260;2022-10-16T16:29:05;10.35;90.56
71942;DHT22;59997;53.300;-6.260;2022-10-16T16:31:32;10.36;90.69
71942;DHT22;59997;53.300;-6.260;2022-10-16T16:33:57;10.43;90.36
71942;DHT22;59997;53.300;-6.260;2022-10-16T16:36:24;10.45;90.58
71942;DHT22;59997;53.300;-6.260;2022-10-16T16:38:50;10.52;90.32
71942;DHT22;59997;53.300;-6.260;2022-10-16T16:41:18;10.53;90.51
71942;DHT22;59997;53.300;-6.260;2022-10-16T16:43:44;10.59;90.57
71942;DHT22;59997;53.300;-6.260;2022-10-16T16:46:10;10.74;90.03
71942;DHT22;59997;53.300;-6.260;2022-10-16T16:48:35;10.78;90.05
71942;DHT22;59997;53.300;-6.260;2022-10-16T16:51:05;10.81;90.14
71942;DHT22;59997;53.300;-6.260;2022-10-16T16:53:34;10.90;89.95
71942;DHT22;59997;53.300;-6.260;2022-10-16T16:56:04;10.97;89.96
71942;DHT22;59997;53.300;-6.260;2022-10-16T16:58:30;10.97;89.92
71942;DHT22;59997;53.300;-6.260;2022-10-16T17:00:55;11.01;90.13
71942;DHT22;59997;53.300;-6.260;2022-10-16T17:03:21;11.07;90.21
71942;DHT22;59997;53.300;-6.260;2022-10-16T17:06:07;11.02;90.66
71942;DHT22;59997;53.300;-6.260;2022-10-16T17:08:34;11.04;90.79
71942;DHT22;59997;53.300;-6.260;2022-10-16T17:11:00;11.01;90.94
71942;DHT22;59997;53.300;-6.260;2022-10-16T17:13:27;11.02;91.05
71942;DHT22;59997;53.300;-6.260;2022-10-16T17:15:53;11.00;91.09
71942;DHT22;59997;53.300;-6.260;2022-10-16T17:18:21;11.01;91.12
71942;DHT22;59997;53.300;-6.260;2022-10-16T17:20:47;11.07;91.05
71942;DHT22;59997;53.300;-6.260;2022-10-16T17:23:14;11.11;91.04
71942;DHT22;59997;53.300;-6.260;2022-10-16T17:25:41;11.14;91.10